Time;durP1;ratioP1;P1;durP2;ratioP2;P2;SDS_P1;SDS_P2;PMS_P1;PMS_P2;Temp;Humidity;BMP_temperature;BMP_pressure;BME280_temperature;BME280_humidity;BME280_pressure;Samples;Min_cycle;Max_cycle;Signal;HPM_P1;HPM_P2
2023/01/07 05:02:12;;;;;;;34.28;16.67;;;10.30;99.90;;;;;;6050337;23;20026;-81
2023/01/07 05:04:38;;;;;;;25.35;15.23;;;10.30;99.90;;;;;;6020841;23;20019;-81
2023/01/07 05:07:03;;;;;;;22.00;14.90;;;10.30;99.90;;;;;;6044709;23;20030;-81
2023/01/07 05:09:29;;;;;;;25.25;14.75;;;10.30;99.90;;;;;;6044703;23;20460;-79
2023/01/07 05:11:54;;;;;;;21.33;13.00;;;10.40;99.90;;;;;;6023920;23;20019;-80
2023/01/07 05:14:20;;;;;;;18.48;12.02;;;10.40;99.90;;;;;;6016383;23;20018;-83
2023/01/07 05:16:45;;;;;;;19.95;13.40;;;10.40;99.90;;;;;;6042238;23;20019;-82
2023/01/07 05:19:11;;;;;;;20.08;13.32;;;10.40;99.90;;;;;;6041660;23;20030;-81
2023/01/07 05:21:37;;;;;;;20.48;13.32;;;10.40;99.90;;;;;;6041379;23;20334;-79
2023/01/07 05:24:03;;;;;;;18.98;13.23;;;10.40;99.90;;;;;;6016536;23;20018;-81
2023/01/07 05:26:29;;;;;;;20.15;13.70;;;10.40;99.90;;;;;;6042200;23;20022;-80
2023/01/07 05:28:54;;;;;;;23.88;12.88;;;10.40;99.90;;;;;;6016839;23;20437;-82
2023/01/07 05:31:20;;;;;;;21.95;12.82;;;10.40;99.90;;;;;;6015702;23;20094;-83
2023/01/07 05:33:45;;;;;;;19.10;12.68;;;10.30;99.90;;;;;;6016045;23;20051;-80
2023/01/07 05:36:11;;;;;;;19.58;12.45;;;10.30;99.90;;;;;;6016156;23;20367;-83
2023/01/07 05:38:37;;;;;;;29.45;13.25;;;10.30;99.90;;;;;;6015845;23;20095;-80
2023/01/07 05:41:03;;;;;;;19.85;12.10;;;10.30;99.90;;;;;;6016284;23;20022;-81
2023/01/07 05:43:29;;;;;;;21.08;12.77;;;10.30;99.90;;;;;;6041516;23;20374;-81
2023/01/07 05:45:56;;;;;;;17.30;12.32;;;10.30;99.90;;;;;;6041106;23;20018;-81
2023/01/07 05:48:22;;;;;;;20.35;12.90;;;10.30;99.90;;;;;;6015431;23;20476;-81
2023/01/07 05:50:47;;;;;;;19.35;13.30;;;10.30;99.90;;;;;;6015995;23;20011;-80
2023/01/07 05:53:13;;;;;;;20.77;12.40;;;10.30;99.90;;;;;;6015728;23;20047;-81
2023/01/07 05:55:39;;;;;;;19.58;12.00;;;10.20;99.90;;;;;;6015481;23;20434;-80
2023/01/07 05:58:06;;;;;;;20.23;11.82;;;10.30;99.90;;;;;;6040805;23;20082;-79
2023/01/07 06:00:32;;;;;;;17.70;11.48;;;10.20;99.90;;;;;;6015751;23;20020;-80
2023/01/07 06:02:58;;;;;;;17.70;11.60;;;10.20;99.90;;;;;;6041081;23;20106;-83
2023/01/07 06:05:24;;;;;;;18.52;11.90;;;10.20;99.90;;;;;;6015640;23;20453;-81
2023/01/07 06:07:50;;;;;;;16.90;11.00;;;10.20;99.90;;;;;;6015443;23;20442;-81
2023/01/07 06:10:16;;;;;;;21.02;12.50;;;10.20;99.90;;;;;;6041496;23;20043;-81
2023/01/07 06:12:41;;;;;;;19.27;12.02;;;10.20;99.90;;;;;;6015834;23;20080;-81
2023/01/07 06:15:07;;;;;;;21.15;12.05;;;10.20;99.90;;;;;;6041864;23;20011;-80
2023/01/07 06:17:33;;;;;;;19.70;11.32;;;10.10;99.90;;;;;;6016351;23;20015;-80
2023/01/07 06:19:59;;;;;;;20.40;11.40;;;10.10;99.90;;;;;;6042197;23;20501;-81
2023/01/07 06:22:24;;;;;;;18.02;11.07;;;10.10;99.90;;;;;;6016226;23;20149;-81
2023/01/07 06:24:50;;;;;;;19.20;10.70;;;10.10;99.90;;;;;;6042502;23;20054;-80
2023/01/07 06:27:16;;;;;;;19.70;10.88;;;10.10;99.90;;;;;;6016088;23;20015;-82
2023/01/07 06:29:41;;;;;;;16.30;9.70;;;10.20;99.90;;;;;;6015698;23;20020;-80
2023/01/07 06:32:07;;;;;;;21.00;11.65;;;10.20;99.90;;;;;;6040890;23;20376;-81
2023/01/07 06:34:33;;;;;;;16.02;10.32;;;10.20;99.90;;;;;;6015293;23;20054;-78
2023/01/07 06:36:59;;;;;;;19.25;11.13;;;10.20;99.90;;;;;;6040895;23;20015;-81
2023/01/07 06:39:24;;;;;;;17.58;10.88;;;10.20;99.90;;;;;;6015048;23;20397;-82
2023/01/07 06:41:50;;;;;;;16.40;10.57;;;10.20;99.90;;;;;;6041012;23;20011;-81
2023/01/07 06:44:16;;;;;;;17.05;10.15;;;10.20;99.90;;;;;;6015360;23;20016;-81
2023/01/07 06:46:41;;;;;;;19.08;10.98;;;10.20;99.90;;;;;;6015812;23;20069;-81
2023/01/07 06:49:07;;;;;;;16.20;10.27;;;10.20;99.90;;;;;;6016145;23;20023;-80
2023/01/07 06:51:33;;;;;;;15.35;10.02;;;10.20;99.90;;;;;;6015559;23;20019;-81
2023/01/07 06:53:58;;;;;;;15.77;10.00;;;10.20;99.90;;;;;;6016897;23;20047;-80
2023/01/07 06:56:24;;;;;;;15.10;10.35;;;10.20;99.90;;;;;;6041517;23;20015;-78
2023/01/07 06:58:50;;;;;;;15.93;9.93;;;10.20;99.90;;;;;;5992331;23;20090;-81
2023/01/07 07:01:15;;;;;;;17.55;9.95;;;10.20;99.90;;;;;;6042505;23;20018;-81
2023/01/07 07:03:41;;;;;;;17.15;10.23;;;10.30;99.90;;;;;;6018197;23;20014;-81
2023/01/07 07:06:07;;;;;;;14.50;9.25;;;10.20;99.90;;;;;;6043699;23;20007;-80
2023/01/07 07:08:32;;;;;;;16.35;9.50;;;10.20;99.90;;;;;;6043559;23;20019;-82
2023/01/07 07:10:58;;;;;;;15.40;9.07;;;10.20;99.90;;;;;;6043275;23;20070;-81
2023/01/07 07:13:24;;;;;;;12.50;8.82;;;10.20;99.90;;;;;;6018199;23;20019;-80
2023/01/07 07:15:49;;;;;;;15.20;9.23;;;10.20;99.90;;;;;;6018375;23;20018;-80
2023/01/07 07:18:16;;;;;;;12.43;8.40;;;10.20;99.90;;;;;;6017805;23;20052;-80
2023/01/07 07:20:42;;;;;;;12.10;8.07;;;10.20;99.90;;;;;;5993859;23;20505;-80
2023/01/07 07:23:07;;;;;;;14.18;8.27;;;10.10;99.90;;;;;;6017596;23;20019;-81
2023/01/07 07:25:33;;;;;;;12.82;8.23;;;10.10;99.90;;;;;;6018081;23;20326;-80
2023/01/07 07:27:59;;;;;;;11.57;8.25;;;10.10;99.90;;;;;;6043508;23;20337;-83
2023/01/07 07:30:24;;;;;;;13.43;7.95;;;10.00;99.90;;;;;;6017685;23;20453;-80
2023/01/07 07:32:50;;;;;;;11.52;8.32;;;10.00;99.90;;;;;;6018147;23;20023;-80
2023/01/07 07:35:16;;;;;;;13.85;7.50;;;10.00;99.90;;;;;;6043200;23;20046;-80
2023/01/07 07:37:41;;;;;;;15.10;7.82;;;9.90;99.90;;;;;;5994339;23;20012;-80
2023/01/07 07:40:08;;;;;;;12.40;8.05;;;9.90;99.90;;;;;;5994411;23;20074;-81
2023/01/07 07:42:34;;;;;;;12.55;7.07;;;9.90;99.90;;;;;;6017582;23;20128;-82
2023/01/07 07:45:00;;;;;;;12.48;8.10;;;9.80;99.90;;;;;;6017513;23;20383;-81
2023/01/07 07:47:26;;;;;;;12.27;7.80;;;9.70;99.90;;;;;;6018236;23;20334;-82
2023/01/07 07:49:52;;;;;;;14.20;7.32;;;9.80;99.90;;;;;;6018521;23;20107;-81
2023/01/07 07:52:17;;;;;;;14.45;7.18;;;9.70;99.90;;;;;;6043095;23;20330;-81
2023/01/07 07:54:43;;;;;;;14.35;7.18;;;9.70;99.90;;;;;;6043106;23;20086;-79
2023/01/07 07:57:09;;;;;;;11.52;7.32;;;9.60;99.90;;;;;;6017651;23;20334;-80
2023/01/07 07:59:34;;;;;;;12.27;7.38;;;9.60;99.90;;;;;;6042902;23;20011;-80
2023/01/07 08:02:00;;;;;;;11.38;7.63;;;9.60;99.90;;;;;;6017676;23;20022;-81
2023/01/07 08:04:27;;;;;;;13.52;7.10;;;9.60;99.90;;;;;;6017334;23;20059;-79
2023/01/07 08:06:54;;;;;;;11.15;7.20;;;9.50;99.90;;;;;;6042191;23;20371;-80
2023/01/07 08:09:19;;;;;;;9.52;6.88;;;9.50;99.90;;;;;;6017628;23;20019;-82
2023/01/07 08:11:45;;;;;;;13.43;7.22;;;9.50;99.90;;;;;;6016957;23;20048;-80
2023/01/07 08:14:11;;;;;;;10.43;6.63;;;9.50;99.90;;;;;;6043076;23;20071;-81
2023/01/07 08:16:36;;;;;;;10.95;6.32;;;9.50;99.90;;;;;;6017914;23;20030;-81
2023/01/07 08:19:02;;;;;;;11.20;6.97;;;9.50;99.90;;;;;;6017361;23;20026;-81
2023/01/07 08:21:27;;;;;;;12.05;6.75;;;9.50;99.90;;;;;;6017719;23;20015;-81
2023/01/07 08:23:53;;;;;;;10.13;6.68;;;9.50;99.90;;;;;;6018545;23;20016;-82
2023/01/07 08:26:19;;;;;;;9.70;6.53;;;9.50;99.90;;;;;;6017659;23;20022;-81
2023/01/07 08:28:44;;;;;;;10.93;6.70;;;9.40;99.90;;;;;;6016926;23;20030;-80
2023/01/07 08:31:10;;;;;;;12.25;6.70;;;9.50;99.90;;;;;;6017572;23;20086;-80
2023/01/07 08:33:37;;;;;;;11.80;6.20;;;9.50;99.90;;;;;;6017146;23;20020;-81
2023/01/07 08:36:08;;;;;;;11.38;6.32;;;9.50;99.90;;;;;;6017439;23;20023;-80
2023/01/07 08:38:33;;;;;;;9.63;6.82;;;9.50;99.90;;;;;;6019986;23;20453;-78
2023/01/07 08:40:59;;;;;;;10.18;6.50;;;9.50;99.90;;;;;;6003067;23;20098;-76
2023/01/07 08:43:26;;;;;;;10.82;5.75;;;9.50;99.90;;;;;;6024213;23;20043;-82
2023/01/07 08:45:52;;;;;;;12.48;6.55;;;9.50;99.90;;;;;;6018227;23;20007;-81
2023/01/07 08:48:18;;;;;;;9.85;6.03;;;9.50;99.90;;;;;;6042514;23;20011;-81
2023/01/07 08:50:48;;;;;;;11.88;6.32;;;9.50;99.90;;;;;;6016720;23;20031;-81
2023/01/07 08:53:14;;;;;;;8.32;5.53;;;9.50;99.90;;;;;;6016577;23;20079;-79
2023/01/07 08:55:40;;;;;;;8.57;5.60;;;9.50;99.90;;;;;;6041922;23;20015;-80
2023/01/07 08:58:05;;;;;;;8.63;5.80;;;9.60;99.90;;;;;;6017614;23;20026;-80
2023/01/07 09:00:31;;;;;;;10.43;5.53;;;9.60;99.90;;;;;;6015893;23;20334;-82
2023/01/07 09:02:56;;;;;;;7.30;5.35;;;9.60;99.90;;;;;;6016370;23;20016;-80
2023/01/07 09:05:23;;;;;;;10.55;5.43;;;9.60;99.90;;;;;;6042235;23;20011;-81
2023/01/07 09:07:52;;;;;;;7.00;4.78;;;9.60;99.90;;;;;;6016211;23;20015;-80
2023/01/07 09:10:18;;;;;;;8.70;5.47;;;9.60;99.90;;;;;;6015872;23;20078;-81
2023/01/07 09:12:44;;;;;;;8.05;4.95;;;9.60;99.90;;;;;;6015601;23;20107;-81
2023/01/07 09:15:11;;;;;;;9.63;5.35;;;9.60;99.90;;;;;;6016288;23;20058;-78
2023/01/07 09:17:36;;;;;;;7.65;4.30;;;9.60;99.90;;;;;;6015465;23;20023;-79
2023/01/07 09:20:04;;;;;;;9.77;5.03;;;9.60;99.90;;;;;;6015625;23;20046;-79
2023/01/07 09:22:31;;;;;;;9.82;4.85;;;9.60;99.90;;;;;;6016079;23;20497;-81
2023/01/07 09:25:03;;;;;;;10.30;4.95;;;9.60;99.90;;;;;;6017321;23;20011;-80
2023/01/07 09:27:29;;;;;;;7.93;4.70;;;9.60;99.90;;;;;;6016044;23;20042;-80
2023/01/07 09:29:57;;;;;;;10.32;4.90;;;9.60;99.90;;;;;;6016125;23;20466;-81
2023/01/07 09:32:24;;;;;;;10.90;5.28;;;9.60;99.90;;;;;;6041531;23;20314;-81
2023/01/07 09:34:50;;;;;;;7.80;4.03;;;9.60;99.90;;;;;;6015693;23;20058;-80
2023/01/07 09:37:16;;;;;;;6.60;3.70;;;9.70;99.90;;;;;;6016016;23;20027;-81
2023/01/07 09:39:42;;;;;;;6.47;4.10;;;9.70;99.90;;;;;;6015407;23;20026;-80
2023/01/07 09:42:34;;;;;;;8.52;3.92;;;9.70;99.90;;;;;;6015499;23;20015;-79
2023/01/07 09:45:15;;;;;;;7.72;4.35;;;9.70;99.90;;;;;;6016333;23;20015;-82
2023/01/07 09:47:53;;;;;;;7.90;4.07;;;9.70;99.90;;;;;;6015341;23;20022;-80
2023/01/07 09:50:45;;;;;;;6.82;4.20;;;9.70;99.90;;;;;;6016854;23;20054;-82
2023/01/07 09:53:17;;;;;;;8.02;4.43;;;9.70;99.90;;;;;;6041086;23;20371;-82
2023/01/07 09:55:45;;;;;;;5.22;3.67;;;9.70;99.90;;;;;;6015802;23;20029;-80
2023/01/07 09:58:15;;;;;;;6.30;3.53;;;9.70;99.90;;;;;;6015156;23;20019;-80
2023/01/07 10:00:48;;;;;;;7.22;3.42;;;9.80;99.90;;;;;;6014878;23;20011;-80
2023/01/07 10:03:37;;;;;;;6.97;3.65;;;9.80;99.90;;;;;;5993250;23;20027;-83
2023/01/07 10:06:26;;;;;;;5.90;3.40;;;9.80;99.90;;;;;;6023231;23;20103;-81
2023/01/07 10:09:15;;;;;;;5.28;3.30;;;9.90;99.90;;;;;;5992827;23;20023;-81
2023/01/07 10:12:04;;;;;;;7.78;3.83;;;9.90;99.90;;;;;;6015906;23;20016;-78
2023/01/07 10:14:50;;;;;;;8.95;3.30;;;10.00;99.90;;;;;;6041673;23;20020;-83
2023/01/07 10:17:41;;;;;;;6.13;3.20;;;10.00;99.90;;;;;;6043262;23;20322;-80
2023/01/07 10:20:38;;;;;;;5.97;3.20;;;10.00;99.90;;;;;;6016818;23;20055;-79
2023/01/07 10:23:10;;;;;;;7.35;3.00;;;10.00;99.90;;;;;;6017191;23;20022;-83
2023/01/07 10:25:44;;;;;;;6.55;2.90;;;10.10;99.90;;;;;;6041866;23;20018;-79
2023/01/07 10:28:21;;;;;;;5.05;2.83;;;10.20;99.90;;;;;;6016706;23;20026;-81
2023/01/07 10:30:52;;;;;;;5.13;2.80;;;10.20;99.90;;;;;;6041628;23;20382;-81
2023/01/07 10:33:28;;;;;;;4.40;2.80;;;10.20;99.90;;;;;;6041770;23;20070;-80
2023/01/07 10:36:19;;;;;;;6.57;3.22;;;10.30;99.90;;;;;;6040894;23;20042;-79
2023/01/07 10:38:57;;;;;;;5.68;2.47;;;10.30;99.90;;;;;;6016263;23;20016;-80
2023/01/07 10:41:50;;;;;;;4.63;2.22;;;10.40;99.90;;;;;;6040916;23;20445;-80
2023/01/07 10:44:33;;;;;;;4.80;2.50;;;10.40;99.90;;;;;;6015641;23;20011;-77
2023/01/07 10:47:30;;;;;;;5.93;2.40;;;10.40;99.90;;;;;;6015876;23;20082;-79
2023/01/07 10:50:16;;;;;;;3.55;2.30;;;10.40;99.90;;;;;;6015608;23;20402;-78
2023/01/07 10:53:07;;;;;;;3.90;2.15;;;10.50;99.90;;;;;;6015833;23;20079;-76
2023/01/07 10:56:06;;;;;;;5.35;2.20;;;10.50;99.90;;;;;;6040939;23;20082;-78
2023/01/07 10:58:39;;;;;;;3.65;1.83;;;10.60;99.90;;;;;;6041056;23;20017;-78
2023/01/07 11:01:06;;;;;;;4.90;2.17;;;10.70;99.90;;;;;;6041149;23;20337;-79
2023/01/07 11:03:33;;;;;;;5.05;2.00;;;10.70;99.90;;;;;;6016013;23;20022;-77
2023/01/07 11:06:12;;;;;;;5.40;2.10;;;10.80;99.90;;;;;;5992116;23;20034;-77
2023/01/07 11:08:40;;;;;;;4.88;2.22;;;10.80;99.90;;;;;;6040886;23;20098;-77
2023/01/07 11:11:14;;;;;;;5.80;1.90;;;10.80;99.90;;;;;;6040471;23;20022;-77
2023/01/07 11:13:42;;;;;;;10.18;1.90;;;10.90;99.90;;;;;;6040637;23;20083;-76
2023/01/07 11:16:16;;;;;;;3.97;2.00;;;10.90;99.90;;;;;;6040593;23;20007;-78
2023/01/07 11:18:53;;;;;;;3.15;2.00;;;10.90;99.90;;;;;;6040374;23;20472;-78
2023/01/07 11:21:40;;;;;;;3.00;2.00;;;10.90;99.90;;;;;;6040653;23;20315;-79
2023/01/07 11:24:28;;;;;;;3.38;2.00;;;10.90;99.90;;;;;;6040875;23;20366;-79
2023/01/07 11:27:09;;;;;;;4.75;2.53;;;10.90;99.90;;;;;;6040950;23;20402;-77
2023/01/07 11:29:43;;;;;;;5.18;2.20;;;10.80;99.90;;;;;;6015048;23;20098;-78
2023/01/07 11:32:27;;;;;;;3.47;2.10;;;10.90;99.90;;;;;;6015114;23;20016;-78
2023/01/07 11:35:16;;;;;;;5.10;2.38;;;10.90;99.90;;;;;;6015213;23;20026;-78
2023/01/07 11:37:47;;;;;;;4.88;2.05;;;10.90;99.90;;;;;;6014637;23;20046;-77
2023/01/07 11:40:13;;;;;;;4.10;2.50;;;10.90;99.90;;;;;;5991805;23;20019;-77
2023/01/07 11:43:11;;;;;;;5.80;2.33;;;10.90;99.90;;;;;;6014812;23;20147;-77
2023/01/07 11:45:47;;;;;;;4.38;2.38;;;10.90;99.90;;;;;;6015994;23;20018;-77
2023/01/07 11:48:30;;;;;;;4.57;2.30;;;10.90;99.90;;;;;;6042261;23;20022;-78
2023/01/07 11:50:57;;;;;;;8.52;3.35;;;10.90;99.90;;;;;;5993402;23;20018;-76
2023/01/07 11:53:36;;;;;;;3.53;2.28;;;10.90;99.90;;;;;;6042077;23;20019;-78
2023/01/07 11:56:12;;;;;;;4.63;2.38;;;10.90;99.90;;;;;;6017240;23;20481;-77
2023/01/07 11:58:44;;;;;;;3.83;2.47;;;10.90;99.90;;;;;;6017903;23;20063;-77
2023/01/07 12:01:11;;;;;;;4.32;2.35;;;11.00;99.90;;;;;;6042240;23;20015;-78
2023/01/07 12:03:51;;;;;;;3.70;2.15;;;11.10;99.90;;;;;;6016878;23;20011;-77
2023/01/07 12:06:18;;;;;;;4.03;2.10;;;11.20;99.90;;;;;;6042220;23;20100;-77
2023/01/07 12:09:03;;;;;;;4.40;1.92;;;11.40;99.90;;;;;;6042259;23;20134;-78
2023/01/07 12:11:31;;;;;;;2.30;1.73;;;11.60;99.90;;;;;;6042523;23;20019;-78
2023/01/07 12:14:05;;;;;;;2.85;1.77;;;11.70;99.90;;;;;;6016971;23;20023;-78
2023/01/07 12:16:31;;;;;;;3.80;1.75;;;11.80;99.90;;;;;;6042838;23;20019;-78
2023/01/07 12:18:59;;;;;;;2.78;1.63;;;11.80;99.90;;;;;;6016769;23;20024;-76
2023/01/07 12:21:32;;;;;;;4.50;1.95;;;11.90;99.90;;;;;;6016507;23;20438;-78
2023/01/07 12:24:23;;;;;;;3.63;1.80;;;12.00;99.90;;;;;;6017164;23;20086;-77
2023/01/07 12:27:26;;;;;;;3.13;2.00;;;12.00;99.90;;;;;;6042030;23;20011;-76
2023/01/07 12:30:18;;;;;;;3.65;2.08;;;12.00;99.90;;;;;;6016517;23;20019;-78
2023/01/07 12:33:12;;;;;;;3.17;2.10;;;12.00;99.90;;;;;;6016505;23;20019;-76
2023/01/07 12:35:41;;;;;;;2.67;1.67;;;12.00;99.90;;;;;;6016289;23;20019;-77
2023/01/07 12:38:16;;;;;;;3.60;1.85;;;12.00;99.90;;;;;;6041937;23;20311;-77
2023/01/07 12:40:52;;;;;;;3.58;2.15;;;12.00;99.90;;;;;;6016238;23;20042;-78
2023/01/07 12:43:39;;;;;;;2.85;1.88;;;12.10;99.90;;;;;;6041811;23;20014;-78
2023/01/07 12:46:10;;;;;;;2.85;1.67;;;12.10;99.90;;;;;;6016602;23;20046;-79
2023/01/07 12:49:01;;;;;;;3.47;1.80;;;12.00;99.90;;;;;;6016369;23;20026;-78
2023/01/07 12:51:36;;;;;;;4.68;1.60;;;12.00;99.90;;;;;;6016290;23;20138;-77
2023/01/07 12:54:19;;;;;;;5.25;1.80;;;11.90;99.90;;;;;;6041729;23;20058;-77
2023/01/07 12:56:53;;;;;;;2.67;1.48;;;11.90;99.90;;;;;;6016216;23;20054;-79
2023/01/07 12:59:45;;;;;;;4.00;2.50;;;11.90;99.90;;;;;;6017361;23;20023;-78
2023/01/07 13:02:53;;;;;;;2.90;1.50;;;11.90;99.90;;;;;;5963352;23;20330;-78
2023/01/07 13:05:28;;;;;;;4.43;1.88;;;11.90;99.90;;;;;;5952793;23;20078;-80
2023/01/07 13:08:30;;;;;;;2.75;1.58;;;11.80;99.90;;;;;;6041748;23;20071;-76
2023/01/07 13:11:07;;;;;;;3.13;1.85;;;11.80;99.90;;;;;;6041819;23;20034;-78
2023/01/07 13:13:42;;;;;;;2.42;1.40;;;11.70;99.90;;;;;;6041364;23;20011;-76
2023/01/07 13:16:11;;;;;;;2.58;1.20;;;11.70;99.90;;;;;;6016618;23;20046;-79
2023/01/07 13:18:37;;;;;;;2.25;1.30;;;11.70;99.90;;;;;;5993240;23;20464;-77
2023/01/07 13:21:05;;;;;;;3.08;1.40;;;11.70;99.90;;;;;;6042120;23;20043;-79
2023/01/07 13:23:39;;;;;;;9.00;1.52;;;11.70;99.90;;;;;;6041673;23;20011;-79
2023/01/07 13:26:24;;;;;;;4.25;1.30;;;11.60;99.90;;;;;;6016289;23;20075;-77
2023/01/07 13:29:10;;;;;;;4.37;1.50;;;11.50;99.90;;;;;;6040173;23;20026;-78
2023/01/07 13:31:57;;;;;;;2.90;1.50;;;11.50;99.90;;;;;;6041321;23;20026;-78
2023/01/07 13:35:04;;;;;;;4.10;2.10;;;11.40;99.90;;;;;;6041440;23;20015;-78
2023/01/07 13:37:57;;;;;;;2.67;1.30;;;11.40;99.90;;;;;;5993789;23;20026;-77
2023/01/07 13:40:53;;;;;;;3.97;1.55;;;11.30;99.90;;;;;;6041928;23;20042;-77
2023/01/07 13:43:49;;;;;;;1.95;1.25;;;11.30;99.90;;;;;;6046701;23;20022;-77
2023/01/07 13:46:20;;;;;;;2.40;1.50;;;11.30;99.90;;;;;;6043331;23;20015;-77
2023/01/07 13:48:51;;;;;;;3.25;1.70;;;11.20;99.90;;;;;;6042179;23;20015;-78
2023/01/07 13:51:27;;;;;;;3.13;1.45;;;11.20;99.90;;;;;;6016192;23;20023;-78
2023/01/07 13:53:53;;;;;;;3.78;1.52;;;11.20;99.90;;;;;;6015978;23;20015;-77
2023/01/07 13:56:18;;;;;;;2.88;1.60;;;11.20;99.90;;;;;;6015396;23;20023;-77
2023/01/07 13:58:52;;;;;;;3.25;1.50;;;11.20;99.90;;;;;;6015817;23;20027;-77
2023/01/07 14:01:21;;;;;;;3.97;1.75;;;11.20;99.90;;;;;;6015197;23;20047;-77
2023/01/07 14:03:55;;;;;;;3.55;1.65;;;11.20;99.90;;;;;;6015702;23;20054;-78
2023/01/07 14:06:20;;;;;;;4.72;1.90;;;11.20;99.90;;;;;;6015791;23;20016;-80
2023/01/07 14:09:06;;;;;;;2.80;1.50;;;11.20;99.90;;;;;;6015664;23;20026;-78
2023/01/07 14:11:31;;;;;;;2.90;1.67;;;11.10;99.90;;;;;;6041215;23;20015;-79
2023/01/07 14:14:36;;;;;;;3.17;1.60;;;11.10;99.90;;;;;;6016932;23;20450;-85
2023/01/07 14:17:14;;;;;;;2.88;1.40;;;11.10;99.90;;;;;;6042931;23;20026;-85
2023/01/07 14:19:53;;;;;;;2.40;1.48;;;11.10;99.90;;;;;;6016355;23;20072;-79
2023/01/07 14:22:49;;;;;;;2.70;1.45;;;11.00;99.90;;;;;;6015616;23;20338;-79
2023/01/07 14:25:43;;;;;;;3.75;1.77;;;11.00;99.90;;;;;;6016185;23;20022;-79
2023/01/07 14:28:12;;;;;;;3.15;1.70;;;11.00;99.90;;;;;;6041215;23;20007;-80
2023/01/07 14:30:48;;;;;;;5.45;1.85;;;11.00;99.90;;;;;;6015788;23;20464;-79
2023/01/07 14:33:36;;;;;;;4.53;1.90;;;11.00;99.90;;;;;;6041178;23;20026;-78
2023/01/07 14:36:08;;;;;;;2.65;1.67;;;11.00;99.90;;;;;;5997613;23;20016;-78
2023/01/07 14:38:34;;;;;;;3.40;1.90;;;11.00;99.90;;;;;;6039781;23;20030;-80
2023/01/07 14:41:16;;;;;;;3.83;1.73;;;10.90;99.90;;;;;;6040955;23;20011;-80
2023/01/07 14:43:42;;;;;;;4.03;1.90;;;10.90;99.90;;;;;;6040467;23;20018;-78
2023/01/07 14:46:28;;;;;;;4.00;2.05;;;10.80;99.90;;;;;;5992117;23;20019;-80
2023/01/07 14:48:57;;;;;;;3.15;1.52;;;10.80;99.90;;;;;;6039859;23;20038;-79
2023/01/07 14:51:44;;;;;;;5.47;2.00;;;10.80;99.90;;;;;;6040683;23;20319;-79
2023/01/07 14:54:58;;;;;;;2.47;1.50;;;10.70;99.90;;;;;;5992214;23;20457;-79
2023/01/07 14:58:13;;;;;;;6.03;1.90;;;10.70;99.90;;;;;;6015894;23;20239;-80
2023/01/07 15:01:14;;;;;;;3.20;1.75;;;10.70;99.90;;;;;;5899557;24;20017;-79
2023/01/07 15:04:08;;;;;;;4.18;1.92;;;10.70;99.90;;;;;;5876329;24;20440;-79
2023/01/07 15:06:35;;;;;;;3.45;1.85;;;10.60;99.90;;;;;;6037385;23;20094;-79
2023/01/07 15:17:38;;;;;;;3.28;2.00;;;10.40;99.90;;;;;;6040919;23;20020;-78
2023/01/07 15:20:05;;;;;;;5.55;2.70;;;10.40;99.90;;;;;;5992051;23;20030;-76
2023/01/07 15:22:54;;;;;;;5.22;2.10;;;10.30;99.90;;;;;;6042654;23;20090;-79
2023/01/07 15:25:44;;;;;;;3.83;2.40;;;10.30;99.90;;;;;;5999448;23;20015;-79
2023/01/07 15:28:21;;;;;;;3.90;2.53;;;10.30;99.90;;;;;;6043107;23;20011;-78
2023/01/07 15:30:53;;;;;;;5.43;2.70;;;10.30;99.90;;;;;;6017312;23;20508;-79
2023/01/07 15:33:57;;;;;;;4.63;2.40;;;10.30;99.90;;;;;;6017189;23;20054;-78
2023/01/07 15:36:23;;;;;;;3.97;2.42;;;10.30;99.90;;;;;;6038634;23;20066;-79
2023/01/07 15:38:55;;;;;;;3.92;2.38;;;10.30;99.90;;;;;;6016804;23;20019;-78
2023/01/07 15:41:35;;;;;;;4.55;2.50;;;10.30;99.90;;;;;;6042690;23;20132;-79
2023/01/07 15:44:12;;;;;;;5.03;2.53;;;10.30;99.90;;;;;;6016467;23;20346;-78
2023/01/07 15:46:39;;;;;;;4.13;2.70;;;10.30;99.90;;;;;;6016674;23;20019;-78
2023/01/07 15:49:08;;;;;;;5.55;2.53;;;10.30;99.90;;;;;;6016772;23;20027;-81
2023/01/07 15:51:39;;;;;;;5.25;2.63;;;10.30;99.90;;;;;;6042396;23;20517;-79
2023/01/07 15:54:20;;;;;;;4.95;2.90;;;10.30;99.90;;;;;;6016738;23;20019;-80
2023/01/07 15:56:48;;;;;;;3.90;2.53;;;10.30;99.90;;;;;;6017420;23;20015;-79
2023/01/07 15:59:15;;;;;;;5.35;2.63;;;10.30;99.90;;;;;;6017054;23;20022;-78
2023/01/07 16:01:47;;;;;;;5.72;2.97;;;10.30;99.90;;;;;;5992958;23;20087;-79
2023/01/07 16:04:25;;;;;;;3.83;2.47;;;10.30;99.90;;;;;;6016749;23;20011;-80
2023/01/07 16:06:56;;;;;;;3.72;2.40;;;10.30;99.90;;;;;;6017130;23;20026;-79
2023/01/07 16:09:22;;;;;;;3.88;2.45;;;10.30;99.90;;;;;;6017154;23;20023;-77
2023/01/07 16:11:48;;;;;;;6.00;3.00;;;10.30;99.90;;;;;;6016793;23;20023;-85
2023/01/07 16:14:17;;;;;;;4.72;2.90;;;10.30;99.90;;;;;;6018906;23;20023;-79
2023/01/07 16:16:43;;;;;;;5.25;2.92;;;10.30;99.90;;;;;;6016925;23;20016;-79
2023/01/07 16:19:20;;;;;;;6.18;3.38;;;10.30;99.90;;;;;;6017433;23;20019;-79
2023/01/07 16:22:06;;;;;;;5.63;2.92;;;10.30;99.90;;;;;;6017131;23;20066;-78
2023/01/07 16:24:32;;;;;;;5.20;3.15;;;10.30;99.90;;;;;;6017230;23;20058;-79
2023/01/07 16:27:02;;;;;;;5.75;2.92;;;10.30;99.90;;;;;;6016840;23;20091;-79
2023/01/07 16:29:31;;;;;;;5.15;3.47;;;10.30;99.90;;;;;;5993811;23;20406;-77
2023/01/07 16:31:57;;;;;;;6.18;3.70;;;10.30;99.90;;;;;;6016863;23;20019;-79
2023/01/07 16:34:23;;;;;;;6.53;3.83;;;10.30;99.90;;;;;;6016489;23;20019;-79
2023/01/07 16:36:57;;;;;;;5.82;3.40;;;10.30;99.90;;;;;;6016695;23;20015;-78
2023/01/07 16:39:26;;;;;;;5.63;3.70;;;10.30;99.90;;;;;;6016615;23;20094;-81
2023/01/07 16:42:34;;;;;;;4.93;3.33;;;10.30;99.90;;;;;;6016310;23;20049;-78
2023/01/07 16:44:43;;;;;;;7.03;3.38;;;10.30;99.90;;;;;;6009510;23;20023;-79
2023/01/07 16:47:22;;;;;;;6.57;3.63;;;10.30;99.90;;;;;;6015859;23;20015;-78
2023/01/07 16:49:52;;;;;;;6.30;3.83;;;10.30;99.90;;;;;;6016691;23;20102;-79
2023/01/07 16:52:25;;;;;;;6.70;3.83;;;10.30;99.90;;;;;;6041412;23;20334;-78
2023/01/07 16:54:51;;;;;;;6.65;4.18;;;10.30;99.90;;;;;;6015739;23;20082;-78
2023/01/07 16:57:16;;;;;;;7.07;4.03;;;10.30;99.90;;;;;;6015679;23;20096;-81
2023/01/07 16:59:51;;;;;;;5.70;3.58;;;10.30;99.90;;;;;;6015665;23;20023;-79
2023/01/07 17:02:36;;;;;;;7.47;3.95;;;10.30;99.90;;;;;;6041132;23;20437;-79
2023/01/07 17:05:13;;;;;;;5.18;3.50;;;10.30;99.90;;;;;;6016516;23;20019;-78
2023/01/07 17:07:39;;;;;;;5.40;3.70;;;10.30;99.90;;;;;;6041744;23;20018;-77
2023/01/07 17:10:06;;;;;;;6.93;3.72;;;10.30;99.90;;;;;;6015641;23;20345;-79
2023/01/07 17:12:38;;;;;;;5.45;3.55;;;10.30;99.90;;;;;;6015566;23;20023;-79
2023/01/07 17:15:22;;;;;;;6.00;3.47;;;10.40;99.90;;;;;;6041094;23;20022;-78
2023/01/07 17:17:48;;;;;;;4.88;3.40;;;10.40;99.90;;;;;;6015941;23;20022;-79
2023/01/07 17:20:21;;;;;;;5.03;3.40;;;10.30;99.90;;;;;;6015418;23;20454;-79
2023/01/07 17:22:48;;;;;;;5.55;3.40;;;10.40;99.90;;;;;;6015402;23;20015;-79
2023/01/07 17:25:23;;;;;;;5.70;3.70;;;10.30;99.90;;;;;;5991868;23;20323;-79
2023/01/07 17:28:05;;;;;;;5.47;3.42;;;10.30;99.90;;;;;;6017513;23;20019;-79
2023/01/07 17:30:33;;;;;;;6.65;3.80;;;10.30;99.90;;;;;;6042245;23;20418;-79
2023/01/07 17:32:59;;;;;;;6.30;3.80;;;10.30;99.90;;;;;;6016279;23;20098;-80
2023/01/07 17:35:25;;;;;;;7.20;4.10;;;10.30;99.90;;;;;;6016222;23;20442;-78
2023/01/07 17:37:56;;;;;;;5.65;3.63;;;10.20;99.90;;;;;;6041911;23;20012;-84
2023/01/07 17:40:22;;;;;;;6.47;3.83;;;10.20;99.90;;;;;;6042555;23;20346;-82
2023/01/07 17:45:33;;;;;;;6.18;4.25;;;10.10;99.90;;;;;;6039618;23;20015;-79
2023/01/07 17:48:00;;;;;;;8.45;4.15;;;10.00;99.90;;;;;;5992750;23;20115;-80
2023/01/07 17:50:36;;;;;;;6.80;4.40;;;10.00;99.90;;;;;;6015886;23;20087;-80
2023/01/07 17:53:02;;;;;;;6.32;4.35;;;9.90;99.90;;;;;;6041627;23;20019;-80
2023/01/07 17:55:30;;;;;;;6.70;4.30;;;9.80;99.90;;;;;;6041974;23;20380;-80
2023/01/07 17:57:56;;;;;;;6.07;4.18;;;9.70;99.90;;;;;;6016122;23;20099;-78
2023/01/07 18:00:24;;;;;;;6.75;4.30;;;9.60;99.90;;;;;;6015898;23;20023;-79
2023/01/07 18:02:50;;;;;;;6.75;3.97;;;9.60;99.90;;;;;;6016065;23;20026;-78
2023/01/07 18:05:24;;;;;;;5.75;3.88;;;9.60;99.90;;;;;;5992869;23;20011;-80
2023/01/07 18:07:51;;;;;;;6.32;4.35;;;9.50;99.90;;;;;;6042044;23;20008;-79
2023/01/07 18:10:23;;;;;;;5.68;3.92;;;9.50;99.90;;;;;;6040744;23;20050;-77
2023/01/07 18:12:49;;;;;;;7.57;3.97;;;9.50;99.90;;;;;;6015623;23;20441;-81
2023/01/07 18:15:24;;;;;;;7.82;3.90;;;9.50;99.90;;;;;;6016536;23;20019;-82
2023/01/07 18:17:50;;;;;;;6.60;4.43;;;9.50;99.90;;;;;;6041406;23;20011;-80
2023/01/07 18:20:17;;;;;;;6.13;3.65;;;9.40;99.90;;;;;;5992284;23;20019;-79
2023/01/07 18:22:43;;;;;;;6.45;3.75;;;9.50;99.90;;;;;;6015839;23;20015;-80
2023/01/07 18:25:20;;;;;;;6.28;3.80;;;9.50;99.90;;;;;;6016756;23;20094;-83
2023/01/07 18:27:47;;;;;;;6.18;3.90;;;9.50;99.90;;;;;;6015971;23;20018;-80